FW9698 Weather Reports


Display with metric or nautical units.
time (UTC)temp
F
wind
direction
speed
MPH
gust
MPH
rain 1hr
in
rain 24hr
in
rain mn
in
humidity
%
barometer
mb
20221208021822 53 21 1.0 2.0 0.00 0.02 0.02 92 1023.6
20221208015822 53 28 1.0 2.0 0.00 0.02 0.02 92 1023.7
20221208014920 53 28 1.0 2.0 0.00 0.02 0.02 92 1023.5
20221208013922 53 11 0.0 3.0 0.00 0.02 0.02 92 1023.6
20221208010921 54 29 1.0 2.0 0.00 0.02 0.02 92 1023.8
20221208010824 54 28 1.0 3.0 0.00 0.02 0.02 92 1023.8
20221208004921 54 22 1.0 2.0 0.00 0.02 0.02 92 1023.9
20221208004823 54 17 0.0 1.0 0.00 0.02 0.02 91 1023.8
20221208003922 54 19 0.0 1.0 0.00 0.02 0.02 92 1023.9
20221208002022 55 13 2.0 4.0 0.00 0.02 0.02 92 1023.8
20221208001122 55 38 1.0 2.0 0.00 0.02 0.02 93 1023.7
20221208000220 55 19 2.0 3.0 0.00 0.02 0.02 93 1023.4
20221207235222 55 10 1.0 3.0 0.00 0.02 0.02 93 1023.4
20221207235121 55 22 2.0 3.0 0.00 0.02 0.02 93 1023.4
20221207234121 55 19 1.0 3.0 0.00 0.02 0.02 93 1023.6
20221207233120 55 32 1.0 2.0 0.00 0.02 0.02 92 1023.6
20221207231123 55 18 2.0 3.0 0.00 0.02 0.02 91 1023.3
20221207224121 55 360 1.0 3.0 0.00 0.02 0.02 90 1023.3
20221207223207 55 343 0.0 2.0 0.00 0.02 0.02 91 1023.2
20221207222122 55 24 1.0 3.0 0.00 0.02 0.02 92 1023.1
20221207221121 55 4 1.0 3.0 0.00 0.02 0.02 92 1023.2
20221207215122 55 24 2.0 3.0 0.00 0.02 0.02 91 1023.2
20221207213221 55 360 0.0 2.0 0.00 0.02 0.02 91 1023.0
20221207212221 55 360 0.0 1.0 0.00 0.02 0.02 91 1023.1
20221207211220 56 337 0.0 0.0 0.00 0.02 0.02 90 1023.2
20221207210222 56 336 0.0 2.0 0.00 0.02 0.02 87 1022.7
20221207205320 56 19 1.0 2.0 0.00 0.02 0.02 88 1022.6
20221207203321 56 22 0.0 1.0 0.00 0.02 0.02 88 1023.0
20221207202420 57 360 0.0 0.0 0.00 0.02 0.02 90 1023.0
20221207201421 57 45 0.0 0.0 0.00 0.02 0.02 89 1022.9
20221207200421 57 360 0.0 1.0 0.00 0.02 0.02 91 1023.0
20221207194521 56 360 0.0 0.0 0.00 0.02 0.02 91 1023.1
20221207193620 56 337 0.0 0.0 0.00 0.02 0.02 92 1023.2
20221207192622 57 3 1.0 2.0 0.00 0.02 0.02 93 1023.2
20221207191720 57 337 1.0 2.0 0.00 0.02 0.02 92 1023.1
20221207190720 56 337 0.0 0.0 0.00 0.02 0.02 92 1023.2
20221207185819 56 45 0.0 0.0 0.00 0.02 0.02 92 1023.4
20221207184820 56 360 0.0 0.0 0.00 0.02 0.02 93 1023.4
20221207183822 56 360 0.0 0.0 0.00 0.02 0.02 93 1023.7
20221207182820 56 360 0.0 0.0 0.00 0.02 0.02 93 1023.6
20221207181821 56 22 0.0 0.0 0.00 0.02 0.02 91 1023.7
20221207180019 55 315 0.0 1.0 0.00 0.02 0.02 93 1023.9
20221207175923 55 316 0.0 0.0 0.00 0.02 0.02 92 1023.9
20221207175020 55 337 0.0 0.0 0.00 0.02 0.02 92 1024.1
20221207174020 55 360 0.0 0.0 0.00 0.02 0.02 92 1024.1
20221207173119 54 356 2.0 3.0 0.00 0.02 0.02 92 1024.1
20221207172121 54 1 0.0 0.0 0.00 0.02 0.02 92 1024.1
20221207171121 54 15 1.0 3.0 0.00 0.02 0.02 92 1024.0
20221207170121 54 336 1.0 3.0 0.00 0.02 0.02 93 1024.1
20221207170021 54 11 1.0 3.0 0.00 0.02 0.02 93 1024.2
20221207165021 54 10 0.0 2.0 0.00 0.02 0.02 92 1024.5
20221207164021 54 22 0.0 1.0 0.00 0.02 0.02 93 1024.1
20221207163022 54 22 0.0 1.0 0.00 0.02 0.02 93 1024.0
20221207162120 54 22 0.0 2.0 0.00 0.02 0.02 92 1024.0
20221207161122 53 18 1.0 3.0 0.00 0.02 0.02 91 1024.0
20221207160120 53 30 0.0 2.0 0.00 0.02 0.02 91 1023.9
20221207155219 53 15 0.0 2.0 0.00 0.02 0.02 92 1024.0
20221207154319 52 22 0.0 2.0 0.00 0.02 0.02 91 1023.8
20221207153321 52 12 2.0 4.0 0.00 0.02 0.02 91 1023.7
20221207152320 52 22 0.0 1.0 0.00 0.02 0.02 90 1023.6
20221207151323 52 67 0.0 0.0 0.00 0.02 0.02 90 1023.3
20221207150320 52 111 0.0 0.0 0.00 0.02 0.02 91 1023.1
20221207144421 52 357 3.0 4.0 0.00 0.02 0.02 90 1023.3
20221207142520 51 87 0.0 1.0 0.01 0.02 0.02 89 1022.7
20221207142420 51 150 0.0 0.0 0.01 0.02 0.02 89 1022.8
20221207141519 51 22 0.0 0.0 0.01 0.02 0.02 90 1023.0
20221207135621 51 157 0.0 0.0 0.01 0.02 0.02 90 1023.0
20221207134621 51 158 1.0 2.0 0.01 0.02 0.02 89 1023.1
20221207132722 51 315 0.0 0.0 0.00 0.01 0.01 89 1022.9
20221207132620 51 315 0.0 1.0 0.00 0.01 0.01 88 1022.8
20221207131620 51 315 0.0 0.0 0.00 0.01 0.01 88 1022.5
20221207130719 51 172 0.0 0.0 0.00 0.01 0.01 88 1022.1
20221207124819 51 145 0.0 2.0 0.00 0.01 0.01 87 1021.3
20221207123822 51 132 0.0 1.0 0.00 0.01 0.01 87 1021.2
20221207121822 51 135 0.0 0.0 0.00 0.01 0.01 88 1021.3
20221207120820 51 157 0.0 1.0 0.00 0.01 0.01 87 1021.3
20221207115821 50 360 0.0 2.0 0.00 0.01 0.01 88 1021.5
20221207114919 50 135 0.0 0.0 0.00 0.01 0.01 88 1020.7
20221207113921 50 148 1.0 2.0 0.00 0.01 0.01 88 1020.8
20221207112920 50 45 0.0 0.0 0.00 0.01 0.01 87 1021.2
20221207111919 50 360 0.0 0.0 0.00 0.01 0.01 88 1021.5
20221207110920 50 18 0.0 1.0 0.00 0.01 0.01 88 1021.3
20221207105920 50 45 0.0 1.0 0.00 0.01 0.01 87 1021.3
20221207104921 50 22 2.0 3.0 0.00 0.01 0.01 88 1021.2
20221207104019 50 10 1.0 3.0 0.00 0.01 0.01 89 1020.9
20221207103020 50 8 0.0 1.0 0.00 0.01 0.01 87 1020.9
20221207102119 50 180 0.0 0.0 0.00 0.01 0.01 88 1021.0
20221207101120 50 125 0.0 1.0 0.00 0.01 0.01 87 1020.9
20221207100121 50 22 0.0 0.0 0.00 0.01 0.01 87 1021.1
20221207095119 50 24 0.0 1.0 0.00 0.01 0.01 87 1021.4
20221207094119 50 10 1.0 2.0 0.00 0.01 0.01 86 1021.5
20221207093219 50 28 0.0 1.0 0.00 0.01 0.01 87 1021.2
20221207092319 50 360 0.0 1.0 0.00 0.01 0.01 88 1021.5
20221207092220 50 347 0.0 1.0 0.00 0.01 0.01 88 1021.4
20221207091220 50 67 0.0 0.0 0.01 0.01 0.01 88 1021.0
20221207090319 50 22 0.0 1.0 0.01 0.01 0.01 88 1021.1
20221207085321 50 11 0.0 1.0 0.01 0.01 0.01 87 1021.0
20221207084319 50 45 0.0 1.0 0.01 0.01 0.01 86 1021.1
20221207083319 50 14 0.0 2.0 0.01 0.01 0.01 86 1020.9
20221207081518 51 354 0.0 0.0 0.01 0.01 0.01 85 1021.0
20221207080520 51 13 0.0 2.0 0.00 0.00 0.00 84 1021.0
20221207080418 51 11 1.0 2.0 0.00 0.00 0.00 84 1021.1
20221207075420 52 359 2.0 3.0 0.00 0.00 0.00 85 1021.2
20221207074420 52 353 0.0 2.0 0.00 0.00 0.00 85 1020.9
20221207073419 52 3 0.0 0.0 0.00 0.00 0.00 85 1020.7
20221207073319 52 3 0.0 3.0 0.00 0.00 0.00 85 1020.7
20221207070518 52 337 0.0 1.0 0.00 0.00 0.00 84 1020.4
20221207070419 52 1 0.0 1.0 0.00 0.00 0.00 85 1020.4
20221207065420 52 356 1.0 3.0 0.00 0.00 0.00 84 1020.8
20221207063519 52 337 0.0 0.0 0.00 0.00 0.00 84 1020.0
20221207063419 52 346 0.0 1.0 0.00 0.00 0.00 84 1020.0
20221207062419 53 14 1.0 3.0 0.00 0.00 0.00 84 1019.9
20221207061519 53 357 1.0 3.0 0.00 0.00 0.00 85 1019.8
20221207060618 53 22 0.0 0.0 0.00 0.00 0.00 85 1019.8
20221207054626 53 25 1.0 3.0 0.00 0.00 0.00 85 1020.2
20221207053627 53 24 1.0 3.0 0.00 0.00 0.00 85 1019.8
20221207052629 54 17 1.0 3.0 0.00 0.00 0.00 84 1019.8
20221207051626 54 4 0.0 2.0 0.00 0.00 0.00 84 1019.5
20221207050626 54 17 0.0 1.0 0.00 0.00 0.00 84 1019.5
20221207045626 54 17 0.0 0.0 0.00 0.00 0.00 85 1019.8
20221207044725 54 13 2.0 4.0 0.00 0.00 0.00 85 1019.5
20221207042827 54 4 0.0 1.0 0.00 0.00 0.00 85 1019.3
20221207040025 54 13 2.0 3.0 0.00 0.00 0.00 85 1019.1
20221207035027 55 45 0.0 1.0 0.00 0.00 0.00 85 1018.9
20221207034025 55 353 0.0 1.0 0.00 0.00 0.00 85 1019.3
20221207033125 55 1 0.0 2.0 0.00 0.00 0.00 85 1018.9
20221207032126 55 11 0.0 1.0 0.00 0.00 0.00 85 1018.8
20221207032025 55 360 0.0 2.0 0.00 0.00 0.00 85 1018.8
20221207031026 55 8 0.0 2.0 0.00 0.00 0.00 83 1018.3
20221207030125 55 12 0.0 1.0 0.00 0.00 0.00 84 1018.4
20221207025127 55 16 2.0 4.0 0.00 0.00 0.00 84 1018.4
20221207024126 56 20 2.0 4.0 0.00 0.00 0.00 85 1018.1
20221207024025 56 19 0.0 3.0 0.00 0.00 0.00 85 1018.2
20221207023027 56 44 0.0 0.0 0.00 0.00 0.00 84 1018.0